Time;durP1;ratioP1;P1;durP2;ratioP2;P2;SDS_P1;SDS_P2;PMS_P1;PMS_P2;Temp;Humidity;BMP_temperature;BMP_pressure;BME280_temperature;BME280_humidity;BME280_pressure;Samples;Min_cycle;Max_cycle;Signal;HPM_P1;HPM_P2
2021/08/20 00:00:10;;;;;;;17.10;12.38;;;18.50;99.90;;;18.96;80.82;101399.50;5029664;28;20076;-69
2021/08/20 00:02:43;;;;;;;18.48;12.90;;;18.50;99.90;;;18.89;80.94;101399.69;5029955;28;20038;-69
2021/08/20 00:05:15;;;;;;;17.15;13.05;;;18.50;99.90;;;18.89;80.73;101401.50;5029670;28;20132;-69
2021/08/20 00:07:43;;;;;;;19.27;12.55;;;18.50;99.90;;;18.95;80.91;101390.56;5029121;28;20145;-69
2021/08/20 00:10:13;;;;;;;18.50;12.50;;;18.60;99.90;;;18.98;81.28;101386.94;5029725;28;20038;-69
2021/08/20 00:12:42;;;;;;;19.40;12.57;;;18.60;99.90;;;19.02;81.38;101385.91;5029666;28;20227;-69
2021/08/20 00:15:12;;;;;;;20.27;12.98;;;18.60;99.90;;;19.03;81.32;101382.31;5029718;28;20482;-69
2021/08/20 00:17:41;;;;;;;17.65;12.75;;;18.60;99.90;;;19.00;81.34;101377.94;5029877;28;20049;-68
2021/08/20 00:20:11;;;;;;;19.88;12.98;;;18.60;99.90;;;19.09;81.46;101379.44;5029611;28;20053;-69
2021/08/20 00:22:39;;;;;;;22.42;12.73;;;18.60;99.90;;;19.04;82.00;101370.66;5029585;28;20049;-69
2021/08/20 00:25:09;;;;;;;22.00;13.48;;;18.70;99.90;;;18.96;81.49;101351.25;5029270;28;20050;-69
2021/08/20 00:27:39;;;;;;;16.27;12.50;;;18.70;99.90;;;19.17;81.52;101382.75;5029851;28;20519;-69
2021/08/20 00:30:11;;;;;;;20.52;12.13;;;18.70;99.90;;;19.19;81.34;101375.53;5029811;28;20671;-68
2021/08/20 00:32:40;;;;;;;19.48;12.70;;;18.80;99.90;;;19.07;81.28;101349.97;5028058;28;20075;-69
2021/08/20 00:35:09;;;;;;;17.10;12.45;;;18.80;99.90;;;19.23;81.37;101377.19;5029208;28;20136;-69
2021/08/20 00:37:38;;;;;;;18.30;12.55;;;18.80;99.90;;;19.04;81.47;101349.19;5028075;28;20110;-69
2021/08/20 00:40:08;;;;;;;16.65;12.60;;;18.80;99.90;;;19.21;81.58;101369.22;5029263;28;20057;-69
2021/08/20 00:42:36;;;;;;;19.23;14.68;;;18.80;99.90;;;19.30;81.57;101385.00;5028998;28;20072;-68
2021/08/20 00:45:10;;;;;;;17.60;14.65;;;18.90;99.90;;;19.33;81.63;101386.75;5029263;28;20137;-69
2021/08/20 00:47:38;;;;;;;23.73;15.68;;;18.90;99.90;;;19.36;81.67;101378.59;5028035;28;20106;-69
2021/08/20 00:50:09;;;;;;;21.15;15.65;;;18.90;99.90;;;19.37;81.82;101383.94;5028953;28;20125;-68
2021/08/20 00:52:39;;;;;;;20.83;15.45;;;18.90;99.90;;;19.41;81.63;101384.69;5029152;28;20381;-68
2021/08/20 00:55:14;;;;;;;22.13;15.73;;;19.00;99.90;;;19.41;81.87;101373.97;5029150;28;20054;-68
2021/08/20 00:57:47;;;;;;;20.55;15.40;;;19.00;99.90;;;19.41;81.81;101371.28;5027820;28;20061;-69
2021/08/20 01:00:22;;;;;;;20.05;16.27;;;19.00;99.90;;;19.38;82.00;101371.38;5027832;28;20077;-68
2021/08/20 01:02:53;;;;;;;21.33;15.90;;;19.00;99.90;;;19.33;82.34;101357.25;5027628;28;20461;-69
2021/08/20 01:05:22;;;;;;;22.45;16.33;;;19.00;99.90;;;19.38;82.37;101366.00;5028822;28;20042;-69
2021/08/20 01:07:51;;;;;;;21.33;16.25;;;19.00;99.90;;;19.42;82.40;101368.53;5028532;28;20438;-69
2021/08/20 01:10:20;;;;;;;21.80;16.38;;;19.00;99.90;;;19.44;82.44;101366.69;5027859;28;20163;-69
2021/08/20 01:12:49;;;;;;;25.50;17.80;;;19.00;99.90;;;19.42;82.52;101367.66;5027731;28;20107;-68
2021/08/20 01:15:19;;;;;;;21.30;17.15;;;19.00;99.90;;;19.41;82.79;101365.91;5027562;28;20555;-69
2021/08/20 01:17:52;;;;;;;20.10;16.52;;;19.00;99.90;;;18.93;82.75;101269.97;5027532;28;20049;-69
2021/08/20 01:20:21;;;;;;;22.73;17.38;;;19.00;99.90;;;19.42;82.83;101356.91;5028749;28;20140;-69
2021/08/20 01:22:50;;;;;;;20.08;16.90;;;19.00;99.90;;;19.42;82.75;101352.44;5030792;28;20046;-68
2021/08/20 01:25:20;;;;;;;21.40;17.45;;;19.00;99.90;;;19.36;83.10;101358.00;5032124;28;20099;-69
2021/08/20 01:27:49;;;;;;;21.48;18.27;;;19.00;99.90;;;19.43;83.21;101356.91;5030766;28;20038;-68
2021/08/20 01:30:18;;;;;;;22.73;18.70;;;19.00;99.90;;;19.46;83.29;101358.59;5030662;28;20046;-68
2021/08/20 01:32:46;;;;;;;21.63;17.58;;;19.10;99.90;;;19.46;83.35;101359.47;5030600;28;20072;-69
2021/08/20 01:35:16;;;;;;;19.30;17.15;;;19.10;99.90;;;19.49;83.40;101356.66;5030336;28;20053;-68
2021/08/20 01:37:45;;;;;;;21.00;18.15;;;19.10;99.90;;;19.47;83.70;101360.34;5030606;28;20487;-68
2021/08/20 01:40:14;;;;;;;25.23;17.35;;;19.10;99.90;;;19.48;84.01;101362.09;5030595;28;20045;-69
2021/08/20 01:42:45;;;;;;;28.90;17.65;;;19.10;99.90;;;19.50;84.08;101360.25;5030735;28;20054;-69
2021/08/20 01:45:16;;;;;;;21.13;16.85;;;19.10;99.90;;;19.07;84.26;101274.00;5030633;28;20049;-69
2021/08/20 01:47:45;;;;;;;24.20;17.60;;;19.10;99.90;;;19.51;84.41;101368.22;5031683;28;20053;-69
2021/08/20 01:50:15;;;;;;;24.90;17.95;;;19.10;99.90;;;19.49;84.78;101361.19;5030705;28;20049;-69
2021/08/20 01:52:44;;;;;;;21.23;17.48;;;19.10;99.90;;;19.48;84.93;101359.41;5030632;28;20042;-69
2021/08/20 01:55:14;;;;;;;28.80;18.15;;;19.10;99.90;;;19.44;85.29;101360.44;5030296;28;20134;-69
2021/08/20 01:57:45;;;;;;;23.67;17.13;;;19.10;99.90;;;19.51;85.25;101357.50;5031651;28;20068;-69
2021/08/20 02:00:16;;;;;;;21.17;16.42;;;19.10;99.90;;;19.53;85.21;101355.63;5030370;28;20056;-69
2021/08/20 02:02:45;;;;;;;;;;;19.20;99.90;;;19.50;85.29;101353.06;5031768;28;20430;-69
2021/08/20 02:05:16;;;;;;;;;;;19.20;99.90;;;19.47;85.44;101361.22;5030596;28;19925;-69
2021/08/20 02:07:45;;;;;;;27.40;18.20;;;19.20;99.90;;;19.42;85.94;101356.91;5031096;28;19921;-69
2021/08/20 02:10:18;;;;;;;28.52;19.13;;;19.10;99.90;;;19.46;85.92;101355.91;5030527;28;20056;-70
2021/08/20 02:12:48;;;;;;;24.17;18.20;;;19.10;99.90;;;19.31;86.17;101349.22;5030147;28;20100;-69
2021/08/20 02:15:18;;;;;;;24.00;18.38;;;19.00;99.90;;;19.34;86.46;101358.97;5030233;28;20496;-68
2021/08/20 02:17:46;;;;;;;25.45;19.73;;;19.00;99.90;;;19.35;86.61;101358.94;5030096;28;20071;-69
2021/08/20 02:20:18;;;;;;;26.95;20.58;;;19.00;99.90;;;19.41;86.59;101360.56;5030209;28;20046;-69
2021/08/20 02:22:49;;;;;;;26.85;20.33;;;19.00;99.90;;;19.39;86.81;101359.72;5030201;28;20081;-69
2021/08/20 02:25:18;;;;;;;25.08;19.02;;;19.00;99.90;;;19.41;86.48;101363.25;5029978;28;20045;-69
2021/08/20 02:27:51;;;;;;;26.77;20.10;;;19.00;99.90;;;19.42;86.53;101365.84;5030405;28;20038;-68
2021/08/20 02:30:20;;;;;;;30.48;20.15;;;19.00;99.90;;;19.46;86.26;101366.63;5031365;28;20045;-70
2021/08/20 02:32:51;;;;;;;25.52;21.00;;;19.10;99.90;;;19.42;86.33;101368.53;5030014;28;20045;-70
2021/08/20 02:35:24;;;;;;;28.50;22.02;;;19.10;99.90;;;18.89;86.27;101273.69;5030069;28;20094;-70
2021/08/20 02:37:54;;;;;;;30.73;20.97;;;19.10;99.90;;;19.39;86.25;101352.56;5030180;28;20377;-70
2021/08/20 02:40:23;;;;;;;;;;;19.10;99.90;;;19.58;85.82;101367.13;5030274;28;20045;-70
2021/08/20 02:42:53;;;;;;;29.08;20.83;;;19.20;99.90;;;19.49;85.68;101353.13;5031134;28;20007;-69
2021/08/20 02:45:22;;;;;;;28.27;21.45;;;19.20;99.90;;;19.64;85.54;101364.25;5029713;28;20050;-69
2021/08/20 02:47:58;;;;;;;28.45;20.90;;;19.20;99.90;;;19.67;85.50;101352.50;5029708;28;20057;-69
2021/08/20 02:50:29;;;;;;;29.55;22.05;;;19.30;99.90;;;19.68;85.35;101354.25;5029601;28;20127;-70
2021/08/20 02:52:58;;;;;;;25.70;20.75;;;19.30;99.90;;;19.70;85.34;101361.31;5029778;28;20583;-69
2021/08/20 02:55:30;;;;;;;26.02;21.10;;;19.30;99.90;;;19.71;85.39;101354.16;5029519;28;20049;-69
2021/08/20 02:58:01;;;;;;;25.92;20.90;;;19.30;99.90;;;19.71;85.34;101363.09;5029295;28;20049;-69
2021/08/20 03:00:35;;;;;;;28.80;21.00;;;19.30;99.90;;;19.75;85.53;101359.38;5029758;28;20046;-69
2021/08/20 03:03:04;;;;;;;27.58;21.38;;;19.30;99.90;;;19.65;85.56;101331.06;5029521;28;20083;-69
2021/08/20 03:05:33;;;;;;;26.67;21.27;;;19.30;99.90;;;19.82;85.40;101352.00;5029100;28;20037;-69
2021/08/20 03:08:02;;;;;;;25.83;20.65;;;19.40;99.90;;;19.86;85.31;101347.38;5029342;28;20063;-69
2021/08/20 03:10:33;;;;;;;26.38;20.45;;;19.40;99.90;;;19.84;85.51;101344.72;5029323;28;20050;-69
2021/08/20 03:13:04;;;;;;;22.67;19.58;;;19.50;99.90;;;19.89;85.67;101347.25;5029143;28;20048;-69
2021/08/20 03:15:32;;;;;;;;;;;19.50;99.90;;;19.93;85.44;101348.91;5029585;28;20050;-69
2021/08/20 03:18:02;;;;;;;27.23;20.45;;;19.60;99.90;;;19.91;85.50;101346.28;5030186;28;19921;-69
2021/08/20 03:20:31;;;;;;;25.42;19.27;;;19.50;99.90;;;19.89;85.68;101347.25;5029069;28;20543;-69
2021/08/20 03:23:03;;;;;;;24.83;19.70;;;19.50;99.90;;;19.84;85.62;101350.09;5028864;28;20053;-69
2021/08/20 03:25:34;;;;;;;27.00;17.75;;;19.40;99.90;;;19.83;85.61;101348.34;5029095;28;20041;-69
2021/08/20 03:28:07;;;;;;;26.63;18.70;;;19.40;99.90;;;19.80;85.72;101348.47;5030495;28;20060;-69
2021/08/20 03:30:42;;;;;;;25.73;17.75;;;19.40;99.90;;;19.80;85.53;101352.03;5029042;28;20049;-69
2021/08/20 03:33:12;;;;;;;22.83;17.38;;;19.40;99.90;;;19.80;85.63;101346.66;5030229;28;20061;-69
2021/08/20 03:35:48;;;;;;;21.05;17.17;;;19.40;99.90;;;19.75;85.60;101350.44;5030093;28;20053;-69
2021/08/20 03:38:21;;;;;;;21.25;15.85;;;19.40;99.90;;;19.73;85.98;101346.91;5029137;28;20053;-69
2021/08/20 03:40:50;;;;;;;22.38;16.35;;;19.40;99.90;;;19.70;86.22;101347.03;5028770;28;20053;-69
2021/08/20 03:43:24;;;;;;;23.80;16.33;;;19.30;99.90;;;19.76;86.14;101346.84;5028180;28;20453;-69
2021/08/20 03:46:21;;;;;;;20.17;15.02;;;19.40;99.90;;;19.71;85.97;101343.41;5029242;28;20053;-69
2021/08/20 03:48:50;;;;;;;21.35;15.20;;;19.40;99.90;;;19.74;85.72;101348.69;5028921;28;20407;-69
2021/08/20 03:51:18;;;;;;;22.70;15.25;;;19.40;99.90;;;19.77;85.58;101346.78;5029988;28;20042;-69
2021/08/20 03:53:46;;;;;;;20.98;16.08;;;19.40;99.90;;;19.76;85.48;101350.38;5028615;28;20045;-70
2021/08/20 03:56:15;;;;;;;21.00;14.52;;;19.40;99.90;;;19.74;85.70;101348.69;5028498;28;20049;-70
2021/08/20 03:58:58;;;;;;;20.58;14.40;;;19.40;99.90;;;19.79;85.53;101358.34;5029985;28;20045;-69
2021/08/20 04:01:27;;;;;;;18.85;13.98;;;19.40;99.90;;;19.79;85.70;101357.44;5028489;28;20049;-69
2021/08/20 04:03:59;;;;;;;21.55;14.95;;;19.40;99.90;;;19.72;85.87;101351.41;5028204;28;20164;-69
2021/08/20 04:07:03;;;;;;;20.63;13.80;;;19.40;99.90;;;19.75;86.33;101354.00;5027054;28;20069;-69
2021/08/20 04:09:39;;;;;;;17.00;13.18;;;19.40;99.90;;;19.84;85.94;101352.78;5028174;28;20076;-69
2021/08/20 04:12:36;;;;;;;15.77;13.52;;;19.50;99.90;;;19.88;85.64;101357.13;5028391;28;20096;-69
2021/08/20 04:15:14;;;;;;;19.30;13.85;;;19.50;99.90;;;19.85;85.77;101362.63;5029917;28;20097;-69
2021/08/20 04:17:43;;;;;;;19.08;13.25;;;19.50;99.90;;;19.87;85.78;101363.44;5028272;28;20053;-69
2021/08/20 04:20:13;;;;;;;19.33;12.55;;;19.50;99.90;;;19.92;85.61;101364.16;5027946;28;20050;-69
2021/08/20 04:22:42;;;;;;;17.07;12.40;;;19.50;99.90;;;19.95;85.57;101357.78;5028304;28;20492;-69
2021/08/20 04:25:10;;;;;;;16.50;11.20;;;19.50;99.90;;;19.95;85.46;101358.69;5029232;28;20052;-69
2021/08/20 04:27:59;;;;;;;15.82;11.23;;;19.50;99.90;;;19.95;85.35;101358.69;5028210;28;20152;-69
2021/08/20 04:30:55;;;;;;;16.63;11.65;;;19.60;99.90;;;19.99;85.10;101363.03;5028301;28;20045;-70
2021/08/20 04:34:01;;;;;;;21.98;10.32;;;19.60;99.90;;;19.92;85.40;101364.16;5028960;28;20085;-69
2021/08/20 04:37:06;;;;;;;15.80;8.32;;;19.60;99.90;;;19.94;85.64;101369.47;5069723;28;20064;-69
2021/08/20 04:39:49;;;;;;;11.88;7.90;;;19.60;99.90;;;19.90;86.06;101376.75;5029812;28;20050;-70
2021/08/20 04:42:30;;;;;;;12.80;7.47;;;19.50;99.90;;;19.88;86.27;101381.28;5027688;28;20057;-69
2021/08/20 04:45:24;;;;;;;10.40;7.45;;;19.60;99.90;;;19.88;86.28;101378.59;5027980;28;20136;-70
2021/08/20 04:48:18;;;;;;;9.73;7.68;;;19.50;99.90;;;19.86;86.33;101384.97;5027943;28;20137;-70
2021/08/20 04:51:13;;;;;;;10.75;6.90;;;19.50;99.90;;;19.89;86.40;101385.75;5013050;28;20087;-69
2021/08/20 04:53:51;;;;;;;9.63;6.82;;;19.50;99.90;;;19.88;86.46;101383.97;5027565;28;20049;-70
2021/08/20 04:56:23;;;;;;;11.18;7.22;;;19.50;99.90;;;19.97;86.56;101393.53;5031964;28;20090;-70
2021/08/20 04:58:52;;;;;;;13.45;6.53;;;19.60;99.90;;;20.03;86.11;101391.53;5032370;28;20069;-69
2021/08/20 05:01:21;;;;;;;12.00;6.82;;;19.60;99.90;;;20.04;86.16;101401.31;5032152;28;20068;-69
2021/08/20 05:03:51;;;;;;;9.57;6.22;;;19.70;99.90;;;20.02;85.94;101402.28;5032204;28;20048;-69
2021/08/20 05:06:22;;;;;;;10.43;6.82;;;19.70;99.90;;;20.02;85.96;101400.50;5032115;28;20081;-70
2021/08/20 05:08:50;;;;;;;10.73;6.30;;;19.60;99.90;;;20.06;86.01;101394.09;5032175;28;20081;-69
2021/08/20 05:11:18;;;;;;;11.18;6.40;;;19.60;99.90;;;20.08;85.83;101397.59;5032283;28;20053;-71
2021/08/20 05:13:47;;;;;;;10.60;6.63;;;19.60;99.90;;;20.08;85.72;101394.03;5032288;28;20400;-70
2021/08/20 05:16:15;;;;;;;9.70;5.97;;;19.70;99.90;;;20.06;85.90;101398.56;5032078;28;20117;-70
2021/08/20 05:18:43;;;;;;;10.15;6.28;;;19.60;99.90;;;20.05;85.70;101394.16;5031842;28;20141;-71
2021/08/20 05:21:13;;;;;;;9.50;6.47;;;19.60;99.90;;;20.10;85.80;101398.44;5031881;28;20493;-69
2021/08/20 05:23:42;;;;;;;13.33;6.80;;;19.60;99.90;;;20.13;86.14;101401.00;5032145;28;20050;-69
2021/08/20 05:26:10;;;;;;;10.18;6.43;;;19.70;99.90;;;20.18;86.26;101406.22;5032011;28;20349;-69
2021/08/20 05:28:38;;;;;;;8.60;6.38;;;19.80;99.90;;;20.22;85.88;101408.78;5031804;28;20073;-69
2021/08/20 05:31:10;;;;;;;8.45;6.35;;;19.80;99.90;;;20.26;85.62;101414.91;5031828;28;20049;-70
2021/08/20 05:33:39;;;;;;;7.35;6.47;;;19.80;99.90;;;20.29;85.58;101418.38;5031802;28;20404;-69
2021/08/20 05:36:08;;;;;;;9.73;6.72;;;19.90;99.90;;;20.30;85.64;101414.78;5031537;28;20531;-69
2021/08/20 05:38:37;;;;;;;9.02;6.40;;;19.90;99.90;;;20.21;85.92;101393.56;5032087;28;20232;-69
2021/08/20 05:41:06;;;;;;;10.70;6.68;;;20.00;99.90;;;20.36;86.02;101417.22;5032580;28;20038;-69
2021/08/20 05:43:35;;;;;;;10.45;6.07;;;20.00;99.90;;;20.45;85.96;101419.59;5031268;28;20499;-69
2021/08/20 05:46:04;;;;;;;8.98;6.13;;;20.00;99.90;;;20.51;86.09;101430.13;5032584;28;20468;-70
2021/08/20 05:48:32;;;;;;;11.65;6.72;;;20.10;99.90;;;20.57;85.77;101426.31;5032138;28;20218;-69
2021/08/20 05:51:00;;;;;;;11.38;7.55;;;20.20;99.90;;;20.55;85.76;101423.69;5032255;28;20114;-69
2021/08/20 05:53:29;;;;;;;10.20;7.18;;;20.20;99.90;;;20.59;85.74;101425.34;5032071;28;20088;-69
2021/08/20 05:55:58;;;;;;;14.63;7.70;;;20.20;99.90;;;20.52;85.75;101425.59;5031912;28;20098;-69
2021/08/20 05:58:27;;;;;;;11.73;8.13;;;20.20;99.90;;;20.56;85.52;101428.13;5031989;28;20084;-69
2021/08/20 06:00:55;;;;;;;13.48;9.30;;;20.20;99.90;;;20.52;85.67;101429.19;5031896;28;20457;-69
2021/08/20 06:03:26;;;;;;;11.27;9.57;;;20.10;99.90;;;20.54;85.69;101430.00;5032298;28;20046;-69
2021/08/20 06:06:01;;;;;;;13.68;9.63;;;20.20;99.90;;;20.61;85.60;101431.50;5030233;28;20140;-69
2021/08/20 06:08:30;;;;;;;14.15;9.73;;;20.20;99.90;;;20.66;85.43;101440.31;5030617;28;20071;-69
2021/08/20 06:10:59;;;;;;;16.42;11.32;;;20.30;99.90;;;20.70;85.48;101446.44;5031844;28;20571;-69
2021/08/20 06:13:28;;;;;;;16.67;11.20;;;20.30;99.90;;;20.64;85.55;101436.78;5031792;28;20098;-70
2021/08/20 06:15:58;;;;;;;20.95;15.23;;;20.30;99.90;;;20.67;85.66;101447.44;5032426;28;20033;-70
2021/08/20 06:18:26;;;;;;;21.80;15.68;;;20.30;99.90;;;20.59;85.88;101441.47;5032077;28;20045;-69
2021/08/20 06:20:56;;;;;;;21.40;17.00;;;20.20;99.90;;;20.44;86.31;101439.31;5031699;28;20128;-68
2021/08/20 06:23:27;;;;;;;21.35;17.42;;;20.10;99.90;;;20.43;86.78;101445.66;5031634;28;20037;-68
2021/08/20 06:25:56;;;;;;;25.65;17.10;;;20.10;99.90;;;20.42;86.58;101440.31;5031920;28;20408;-68
2021/08/20 06:28:26;;;;;;;24.10;18.50;;;20.10;99.90;;;20.36;87.02;101441.41;5031902;28;20081;-69
2021/08/20 06:30:54;;;;;;;31.60;18.73;;;20.00;99.90;;;20.35;87.46;101447.72;5030537;28;20049;-69
2021/08/20 06:33:25;;;;;;;24.15;17.60;;;19.90;99.90;;;20.35;87.76;101445.03;5030439;28;20049;-71
2021/08/20 06:35:53;;;;;;;25.42;18.25;;;19.90;99.90;;;20.33;87.68;101443.31;5031284;28;20034;-68
2021/08/20 06:38:22;;;;;;;23.40;17.52;;;20.00;99.90;;;20.44;87.56;101452.75;5031188;28;20034;-68
2021/08/20 06:40:50;;;;;;;25.98;18.20;;;20.00;99.90;;;20.45;87.12;101456.31;5031282;28;20065;-66
2021/08/20 06:43:19;;;;;;;23.75;17.15;;;20.00;99.90;;;20.32;87.15;101455.91;5031645;28;20052;-68
2021/08/20 06:45:49;;;;;;;24.65;16.83;;;20.00;99.90;;;20.27;87.21;101455.16;5031667;28;20051;-68
2021/08/20 06:48:18;;;;;;;24.05;16.05;;;19.90;99.90;;;20.25;87.35;101457.03;5030174;28;20584;-68
2021/08/20 06:50:51;;;;;;;27.15;16.10;;;19.80;99.90;;;20.28;87.42;101462.31;5030225;28;20084;-68
2021/08/20 06:53:19;;;;;;;26.80;17.45;;;19.80;99.90;;;20.28;87.88;101458.75;5031225;28;20042;-68
2021/08/20 06:55:48;;;;;;;26.45;16.88;;;19.90;99.90;;;20.12;87.65;101444.94;5030014;28;20072;-68
2021/08/20 06:58:18;;;;;;;23.65;16.77;;;19.90;99.90;;;20.24;88.02;101468.72;5031233;28;20092;-68
2021/08/20 07:00:48;;;;;;;25.95;17.08;;;19.90;99.90;;;20.16;88.44;101468.06;5031642;28;20045;-67
2021/08/20 07:03:19;;;;;;;27.20;17.10;;;19.80;99.90;;;20.24;88.41;101466.03;5031056;28;20055;-67
2021/08/20 07:05:47;;;;;;;26.90;17.88;;;19.80;99.90;;;20.31;88.38;101477.44;5031433;28;20056;-68
2021/08/20 07:08:16;;;;;;;24.83;17.00;;;19.90;99.90;;;20.32;88.86;101472.03;5031319;28;20093;-68
2021/08/20 07:10:44;;;;;;;26.35;17.80;;;19.90;99.90;;;20.35;89.16;101477.28;5030862;28;20037;-68
2021/08/20 07:13:13;;;;;;;26.75;16.80;;;19.90;99.90;;;20.31;89.18;101474.75;5030923;28;20053;-67
2021/08/20 07:15:44;;;;;;;21.27;16.20;;;19.90;99.90;;;20.43;89.50;101474.31;5029890;28;20404;-67
2021/08/20 07:18:15;;;;;;;22.55;15.50;;;20.00;99.90;;;20.50;89.32;101476.75;5029942;28;20404;-66
2021/08/20 07:20:44;;;;;;;22.13;15.07;;;20.10;99.90;;;20.74;89.72;101476.78;5030804;28;20045;-66
2021/08/20 07:23:12;;;;;;;23.23;15.10;;;20.30;99.90;;;20.77;88.34;101479.38;5029719;28;20496;-66
2021/08/20 07:25:40;;;;;;;26.75;15.48;;;20.40;99.90;;;20.81;87.66;101479.19;5030705;28;20053;-67
2021/08/20 07:28:09;;;;;;;22.67;15.00;;;20.50;99.90;;;20.89;87.04;101478.91;5030840;28;20074;-69
2021/08/20 07:30:37;;;;;;;21.67;15.25;;;20.50;99.90;;;20.86;86.50;101479.91;5030554;28;20049;-68
2021/08/20 07:33:06;;;;;;;19.38;13.73;;;20.50;99.90;;;21.04;86.34;101486.47;5030689;28;20050;-68
2021/08/20 07:35:38;;;;;;;21.45;13.50;;;20.60;99.90;;;21.05;86.26;101480.13;5030953;28;20454;-68
2021/08/20 07:38:07;;;;;;;25.52;14.38;;;20.70;99.90;;;21.11;85.72;101485.28;5030943;28;20546;-68
2021/08/20 07:40:35;;;;;;;22.75;13.05;;;20.70;99.90;;;21.15;85.62;101477.03;5030681;28;20120;-66
2021/08/20 07:43:03;;;;;;;17.58;12.63;;;20.80;99.90;;;21.26;85.39;101473.94;5030631;28;20461;-66
2021/08/20 07:45:32;;;;;;;18.45;12.27;;;20.90;99.90;;;21.37;85.00;101466.31;5030436;28;20084;-67
2021/08/20 07:48:01;;;;;;;17.70;11.85;;;21.00;99.90;;;21.56;83.89;101475.44;5030353;28;20110;-66
2021/08/20 07:50:30;;;;;;;18.67;11.70;;;21.20;99.90;;;21.70;83.89;101474.88;5030703;28;20068;-67
2021/08/20 07:53:00;;;;;;;21.50;12.15;;;21.30;99.90;;;21.82;83.49;101486.06;5030056;28;20049;-66
2021/08/20 07:55:29;;;;;;;16.98;10.38;;;21.50;99.90;;;21.82;82.22;101485.16;5030697;28;20404;-66
2021/08/20 07:57:57;;;;;;;18.60;10.32;;;21.50;99.90;;;22.09;81.84;101484.91;5029909;28;20408;-66
2021/08/20 08:00:28;;;;;;;12.85;9.45;;;21.70;99.90;;;22.31;81.75;101491.16;5030179;28;20102;-66
2021/08/20 08:02:58;;;;;;;12.90;8.57;;;21.90;99.90;;;22.44;80.09;101497.78;5030128;28;20041;-67
2021/08/20 08:05:29;;;;;;;12.45;8.82;;;22.10;99.90;;;22.61;78.83;101488.97;5030257;28;20053;-67
2021/08/20 08:08:00;;;;;;;13.93;8.30;;;22.30;99.90;;;22.73;77.66;101488.44;5030385;28;20046;-65
2021/08/20 08:10:28;;;;;;;14.50;8.25;;;22.40;99.90;;;22.96;76.63;101495.47;5030700;28;20048;-66
2021/08/20 08:12:57;;;;;;;13.85;7.63;;;22.60;99.90;;;23.02;75.99;101506.88;5030268;28;20049;-66
2021/08/20 08:15:26;;;;;;;10.43;8.50;;;22.70;99.90;;;22.95;74.79;101504.53;5030516;28;20424;-66
2021/08/20 08:17:56;;;;;;;13.27;9.15;;;22.70;99.90;;;22.89;75.26;101504.81;5029851;28;20076;-66
2021/08/20 08:20:26;;;;;;;15.00;10.60;;;22.60;99.90;;;22.97;75.85;101505.34;5030207;28;20038;-66
2021/08/20 08:22:55;;;;;;;19.05;10.02;;;22.60;99.90;;;23.07;75.15;101498.59;5030169;28;20076;-66
2021/08/20 08:25:27;;;;;;;15.75;10.25;;;22.80;99.90;;;23.26;75.42;101510.28;5030234;28;20120;-66
2021/08/20 08:27:58;;;;;;;14.73;9.73;;;22.90;99.90;;;23.33;73.98;101510.88;5029812;28;20053;-67
2021/08/20 08:30:29;;;;;;;17.98;9.35;;;23.00;99.90;;;23.27;72.90;101512.91;5032662;28;20050;-66
2021/08/20 08:32:58;;;;;;;13.20;9.13;;;23.00;99.90;;;23.18;73.10;101510.63;5033915;28;20042;-66
2021/08/20 08:35:29;;;;;;;;;;;22.90;99.90;;;23.09;73.08;101502.09;5032568;28;20129;-66
2021/08/20 08:38:05;;;;;;;12.80;9.70;;;22.90;99.90;;;23.14;74.07;101516.25;5032203;28;20356;-66
2021/08/20 08:40:38;;;;;;;14.23;7.95;;;22.80;99.90;;;23.14;74.07;101511.72;5033243;28;20051;-66
2021/08/20 08:43:08;;;;;;;12.80;7.80;;;22.80;99.90;;;23.11;72.90;101513.69;5033506;28;20045;-67
2021/08/20 08:45:38;;;;;;;12.35;8.13;;;22.80;99.90;;;23.09;72.38;101518.28;5033121;28;20046;-67
2021/08/20 08:48:09;;;;;;;10.52;7.90;;;22.80;99.90;;;23.16;72.48;101519.75;5032962;28;20045;-69
2021/08/20 08:50:39;;;;;;;10.40;9.40;;;22.80;99.90;;;23.13;72.63;101523.44;5033371;28;20106;-66
2021/08/20 08:53:07;;;;;;;10.45;9.43;;;22.80;99.90;;;22.97;72.54;101524.22;5033194;28;20045;-66
2021/08/20 08:55:50;;;;;;;12.43;9.68;;;22.70;99.90;;;23.01;72.57;101521.34;5032833;28;20098;-65
2021/08/20 08:58:20;;;;;;;13.20;9.80;;;22.70;99.90;;;23.07;73.00;101522.88;5032934;28;20086;-66
2021/08/20 09:00:48;;;;;;;10.63;9.30;;;22.70;99.90;;;23.02;72.50;101524.88;5033576;28;20049;-66
2021/08/20 09:03:25;;;;;;;10.35;8.60;;;22.60;99.90;;;22.88;72.70;101528.22;5032985;28;20041;-66
2021/08/20 09:05:55;;;;;;;12.52;10.02;;;22.50;99.90;;;23.05;73.12;101535.56;5031936;28;20148;-66
2021/08/20 09:08:27;;;;;;;12.13;9.65;;;22.60;99.90;;;23.09;73.29;101523.69;5033095;28;20081;-66
2021/08/20 09:10:59;;;;;;;13.98;10.65;;;22.70;99.90;;;23.17;72.30;101529.63;5032756;28;20100;-66
2021/08/20 09:13:31;;;;;;;13.27;10.20;;;22.80;99.90;;;23.22;71.85;101525.75;5032779;28;20064;-66
2021/08/20 09:16:08;;;;;;;11.52;8.32;;;22.80;99.90;;;23.31;73.25;101521.75;5032947;28;20068;-66
2021/08/20 09:18:37;;;;;;;11.00;8.60;;;22.90;99.90;;;23.42;71.99;101527.56;5032593;28;20468;-66
2021/08/20 09:21:06;;;;;;;12.25;8.68;;;23.10;99.90;;;23.48;70.51;101515.59;5032588;28;20041;-68
2021/08/20 09:23:35;;;;;;;11.55;8.93;;;23.20;99.90;;;23.51;70.32;101537.94;5032554;28;20092;-70
2021/08/20 09:26:08;;;;;;;12.40;9.57;;;23.20;99.90;;;23.67;70.80;101535.38;5031523;28;20106;-67
2021/08/20 09:28:36;;;;;;;10.93;9.10;;;23.30;99.90;;;23.60;69.56;101532.06;5032412;28;20041;-67
2021/08/20 09:31:12;;;;;;;12.98;9.73;;;23.30;99.90;;;23.73;69.76;101540.50;5032333;28;20345;-63
2021/08/20 09:33:49;;;;;;;11.30;9.82;;;23.40;99.90;;;23.74;69.70;101544.94;5032906;28;20499;-63
2021/08/20 09:36:20;;;;;;;12.20;9.60;;;23.50;99.90;;;23.66;69.04;101534.50;5032365;28;20415;-64
2021/08/20 09:38:53;;;;;;;14.88;10.43;;;23.40;99.90;;;23.69;68.90;101545.13;5032608;28;20045;-64
2021/08/20 09:41:28;;;;;;;12.32;8.52;;;23.30;99.90;;;23.66;68.83;101539.91;5030949;28;20090;-63
2021/08/20 09:44:00;;;;;;;8.23;7.15;;;23.30;99.90;;;23.62;67.95;101513.09;5031665;28;20098;-64
2021/08/20 09:46:41;;;;;;;11.07;8.88;;;23.50;99.90;;;24.02;68.23;101534.56;5031957;28;20050;-64
2021/08/20 09:49:10;;;;;;;9.45;7.78;;;23.70;99.90;;;24.15;67.54;101551.94;5032130;28;20049;-64
2021/08/20 09:51:44;;;;;;;11.00;8.30;;;23.80;99.90;;;24.13;67.37;101545.72;5032028;28;20050;-64
2021/08/20 09:54:17;;;;;;;10.25;7.82;;;23.80;99.90;;;24.17;66.52;101550.03;5031830;28;20073;-64
2021/08/20 09:57:00;;;;;;;9.55;7.22;;;23.90;99.90;;;24.34;67.02;101547.34;5031736;28;20045;-64
2021/08/20 09:59:30;;;;;;;9.00;6.95;;;24.00;99.90;;;24.46;67.23;101545.84;5031633;28;20065;-64
2021/08/20 10:02:01;;;;;;;10.13;8.07;;;24.10;99.90;;;24.61;65.77;101542.34;5031306;28;20062;-64
2021/08/20 10:04:32;;;;;;;11.57;9.23;;;24.30;99.90;;;24.55;66.20;101556.19;5031442;28;20116;-64
2021/08/20 10:07:01;;;;;;;10.77;9.07;;;24.20;99.90;;;24.61;65.84;101562.19;5031282;28;20038;-64
2021/08/20 10:09:30;;;;;;;13.30;9.15;;;24.30;99.90;;;24.57;67.14;101557.88;5031196;28;20057;-65
2021/08/20 10:12:01;;;;;;;13.98;7.70;;;24.30;99.90;;;24.49;66.13;101541.16;5031040;28;20079;-65
2021/08/20 10:14:32;;;;;;;7.07;5.82;;;24.30;99.90;;;24.50;64.81;101552.88;5031400;28;20388;-65
2021/08/20 10:17:02;;;;;;;10.00;5.65;;;24.30;99.90;;;24.58;66.04;101556.06;5031119;28;20122;-65
2021/08/20 10:19:31;;;;;;;9.77;6.35;;;24.30;99.90;;;24.73;65.22;101555.28;5030766;28;20055;-65